sensor_id;sensor_type;location;lat;lon;timestamp;P1;durP1;ratioP1;P2;durP2;ratioP2
417;SDS011;49;48.530;9.200;2023-05-23T00:00:41;29.00;;;20.13;;
417;SDS011;49;48.530;9.200;2023-05-23T00:03:08;28.70;;;19.60;;
417;SDS011;49;48.530;9.200;2023-05-23T00:05:36;36.53;;;19.73;;
417;SDS011;49;48.530;9.200;2023-05-23T00:08:03;23.30;;;17.40;;
417;SDS011;49;48.530;9.200;2023-05-23T00:10:30;24.40;;;18.57;;
417;SDS011;49;48.530;9.200;2023-05-23T00:12:57;26.67;;;19.00;;
417;SDS011;49;48.530;9.200;2023-05-23T00:15:24;28.67;;;20.10;;
417;SDS011;49;48.530;9.200;2023-05-23T00:17:51;35.17;;;18.50;;
417;SDS011;49;48.530;9.200;2023-05-23T00:20:18;24.87;;;19.13;;
417;SDS011;49;48.530;9.200;2023-05-23T00:22:46;26.80;;;18.93;;
417;SDS011;49;48.530;9.200;2023-05-23T00:25:13;25.33;;;18.00;;
417;SDS011;49;48.530;9.200;2023-05-23T00:27:40;33.97;;;18.83;;
417;SDS011;49;48.530;9.200;2023-05-23T00:30:07;32.43;;;17.73;;
417;SDS011;49;48.530;9.200;2023-05-23T00:32:34;27.40;;;18.90;;
417;SDS011;49;48.530;9.200;2023-05-23T00:35:01;22.37;;;17.57;;
417;SDS011;49;48.530;9.200;2023-05-23T00:37:29;26.90;;;18.47;;
417;SDS011;49;48.530;9.200;2023-05-23T00:39:57;26.77;;;18.00;;
417;SDS011;49;48.530;9.200;2023-05-23T00:42:24;22.07;;;17.57;;
417;SDS011;49;48.530;9.200;2023-05-23T00:44:51;24.13;;;17.63;;
417;SDS011;49;48.530;9.200;2023-05-23T00:47:18;27.57;;;18.20;;
417;SDS011;49;48.530;9.200;2023-05-23T00:49:45;24.80;;;17.87;;
417;SDS011;49;48.530;9.200;2023-05-23T00:52:13;25.93;;;17.50;;
417;SDS011;49;48.530;9.200;2023-05-23T00:54:40;26.60;;;17.70;;
417;SDS011;49;48.530;9.200;2023-05-23T00:57:09;23.93;;;17.20;;
417;SDS011;49;48.530;9.200;2023-05-23T00:59:36;25.93;;;17.13;;
417;SDS011;49;48.530;9.200;2023-05-23T01:02:03;29.77;;;17.23;;
417;SDS011;49;48.530;9.200;2023-05-23T01:04:30;30.27;;;19.50;;
417;SDS011;49;48.530;9.200;2023-05-23T01:06:58;26.43;;;18.17;;
417;SDS011;49;48.530;9.200;2023-05-23T01:09:26;21.13;;;16.50;;
417;SDS011;49;48.530;9.200;2023-05-23T01:11:57;24.43;;;17.27;;
417;SDS011;49;48.530;9.200;2023-05-23T01:14:37;29.07;;;17.30;;
417;SDS011;49;48.530;9.200;2023-05-23T01:17:12;24.90;;;17.20;;
417;SDS011;49;48.530;9.200;2023-05-23T01:19:48;26.20;;;19.03;;
417;SDS011;49;48.530;9.200;2023-05-23T01:22:23;29.30;;;18.90;;
417;SDS011;49;48.530;9.200;2023-05-23T01:25:06;22.33;;;17.97;;
417;SDS011;49;48.530;9.200;2023-05-23T01:27:41;36.23;;;19.07;;
417;SDS011;49;48.530;9.200;2023-05-23T01:30:14;27.77;;;18.03;;
417;SDS011;49;48.530;9.200;2023-05-23T01:32:44;29.10;;;19.30;;
417;SDS011;49;48.530;9.200;2023-05-23T01:35:13;38.17;;;20.40;;
417;SDS011;49;48.530;9.200;2023-05-23T01:37:47;31.60;;;21.23;;
417;SDS011;49;48.530;9.200;2023-05-23T01:40:14;31.83;;;21.07;;
417;SDS011;49;48.530;9.200;2023-05-23T01:42:42;31.10;;;22.00;;
417;SDS011;49;48.530;9.200;2023-05-23T01:45:09;33.57;;;21.60;;
417;SDS011;49;48.530;9.200;2023-05-23T01:47:37;31.23;;;22.97;;
417;SDS011;49;48.530;9.200;2023-05-23T01:50:06;26.67;;;18.00;;
417;SDS011;49;48.530;9.200;2023-05-23T01:52:35;37.10;;;20.97;;
417;SDS011;49;48.530;9.200;2023-05-23T01:55:04;38.97;;;23.33;;
417;SDS011;49;48.530;9.200;2023-05-23T01:57:34;35.47;;;22.57;;
417;SDS011;49;48.530;9.200;2023-05-23T02:00:03;40.13;;;24.47;;
417;SDS011;49;48.530;9.200;2023-05-23T02:02:31;40.47;;;23.87;;
417;SDS011;49;48.530;9.200;2023-05-23T02:04:59;40.03;;;26.80;;
417;SDS011;49;48.530;9.200;2023-05-23T02:07:25;44.90;;;26.70;;
417;SDS011;49;48.530;9.200;2023-05-23T02:09:53;49.60;;;27.40;;
417;SDS011;49;48.530;9.200;2023-05-23T02:12:20;44.33;;;26.13;;
417;SDS011;49;48.530;9.200;2023-05-23T02:14:47;43.77;;;24.30;;
417;SDS011;49;48.530;9.200;2023-05-23T02:17:17;44.87;;;26.50;;
417;SDS011;49;48.530;9.200;2023-05-23T02:19:46;49.00;;;28.50;;
417;SDS011;49;48.530;9.200;2023-05-23T02:22:13;52.63;;;28.37;;
417;SDS011;49;48.530;9.200;2023-05-23T02:24:40;47.33;;;22.93;;
417;SDS011;49;48.530;9.200;2023-05-23T02:27:06;30.40;;;19.43;;
417;SDS011;49;48.530;9.200;2023-05-23T02:29:33;44.20;;;19.83;;
417;SDS011;49;48.530;9.200;2023-05-23T02:32:01;46.83;;;22.23;;
417;SDS011;49;48.530;9.200;2023-05-23T02:34:29;41.00;;;24.50;;
417;SDS011;49;48.530;9.200;2023-05-23T02:36:56;55.43;;;29.03;;
417;SDS011;49;48.530;9.200;2023-05-23T02:39:23;54.10;;;30.07;;
417;SDS011;49;48.530;9.200;2023-05-23T02:41:50;46.33;;;28.67;;
417;SDS011;49;48.530;9.200;2023-05-23T02:44:17;57.00;;;30.50;;
417;SDS011;49;48.530;9.200;2023-05-23T02:46:43;52.60;;;28.73;;
417;SDS011;49;48.530;9.200;2023-05-23T02:49:10;50.63;;;30.00;;
417;SDS011;49;48.530;9.200;2023-05-23T02:51:39;55.93;;;31.30;;
417;SDS011;49;48.530;9.200;2023-05-23T02:54:06;65.00;;;30.80;;
417;SDS011;49;48.530;9.200;2023-05-23T02:56:32;60.17;;;33.33;;
417;SDS011;49;48.530;9.200;2023-05-23T02:59:00;58.70;;;34.80;;
417;SDS011;49;48.530;9.200;2023-05-23T03:01:27;74.00;;;40.50;;
417;SDS011;49;48.530;9.200;2023-05-23T03:03:53;82.93;;;40.57;;
417;SDS011;49;48.530;9.200;2023-05-23T03:06:21;76.07;;;42.50;;
417;SDS011;49;48.530;9.200;2023-05-23T03:08:49;84.70;;;45.10;;
417;SDS011;49;48.530;9.200;2023-05-23T03:11:16;93.57;;;46.50;;
417;SDS011;49;48.530;9.200;2023-05-23T03:13:43;101.40;;;48.80;;
417;SDS011;49;48.530;9.200;2023-05-23T03:16:09;91.03;;;46.77;;
417;SDS011;49;48.530;9.200;2023-05-23T03:18:37;84.83;;;42.10;;
417;SDS011;49;48.530;9.200;2023-05-23T03:21:05;93.40;;;47.47;;
417;SDS011;49;48.530;9.200;2023-05-23T03:23:32;81.30;;;42.73;;
417;SDS011;49;48.530;9.200;2023-05-23T03:26:02;81.47;;;41.43;;
417;SDS011;49;48.530;9.200;2023-05-23T03:28:30;73.70;;;41.40;;
417;SDS011;49;48.530;9.200;2023-05-23T03:30:57;74.37;;;38.57;;
417;SDS011;49;48.530;9.200;2023-05-23T03:33:24;71.23;;;36.93;;
417;SDS011;49;48.530;9.200;2023-05-23T03:35:51;62.17;;;36.00;;
417;SDS011;49;48.530;9.200;2023-05-23T03:38:18;69.47;;;36.10;;
417;SDS011;49;48.530;9.200;2023-05-23T03:40:44;55.67;;;32.37;;
417;SDS011;49;48.530;9.200;2023-05-23T03:43:13;60.40;;;32.83;;
417;SDS011;49;48.530;9.200;2023-05-23T03:45:40;51.70;;;31.50;;
417;SDS011;49;48.530;9.200;2023-05-23T03:48:06;44.27;;;28.17;;
417;SDS011;49;48.530;9.200;2023-05-23T03:50:33;45.70;;;28.23;;
417;SDS011;49;48.530;9.200;2023-05-23T03:53:00;48.13;;;29.87;;
417;SDS011;49;48.530;9.200;2023-05-23T03:55:27;44.93;;;26.90;;
417;SDS011;49;48.530;9.200;2023-05-23T03:57:56;46.53;;;28.00;;
417;SDS011;49;48.530;9.200;2023-05-23T04:00:25;45.13;;;26.90;;
417;SDS011;49;48.530;9.200;2023-05-23T04:02:52;43.83;;;26.77;;
417;SDS011;49;48.530;9.200;2023-05-23T04:05:19;43.50;;;27.20;;
417;SDS011;49;48.530;9.200;2023-05-23T04:07:46;47.53;;;26.37;;
417;SDS011;49;48.530;9.200;2023-05-23T04:10:13;47.27;;;26.63;;
417;SDS011;49;48.530;9.200;2023-05-23T04:12:40;36.53;;;24.53;;
417;SDS011;49;48.530;9.200;2023-05-23T04:15:07;41.40;;;24.53;;
417;SDS011;49;48.530;9.200;2023-05-23T04:17:37;51.43;;;28.43;;
417;SDS011;49;48.530;9.200;2023-05-23T04:20:06;56.27;;;29.83;;
417;SDS011;49;48.530;9.200;2023-05-23T04:22:34;44.90;;;27.17;;
417;SDS011;49;48.530;9.200;2023-05-23T04:25:01;46.50;;;28.07;;
417;SDS011;49;48.530;9.200;2023-05-23T04:27:29;47.20;;;27.93;;
417;SDS011;49;48.530;9.200;2023-05-23T04:29:55;42.60;;;27.07;;
417;SDS011;49;48.530;9.200;2023-05-23T04:32:24;40.47;;;26.00;;
417;SDS011;49;48.530;9.200;2023-05-23T04:34:53;50.13;;;26.70;;
417;SDS011;49;48.530;9.200;2023-05-23T04:37:20;41.43;;;25.10;;
417;SDS011;49;48.530;9.200;2023-05-23T04:39:50;44.10;;;25.80;;
417;SDS011;49;48.530;9.200;2023-05-23T04:42:17;54.00;;;28.10;;
417;SDS011;49;48.530;9.200;2023-05-23T04:44:50;42.70;;;27.17;;
417;SDS011;49;48.530;9.200;2023-05-23T04:47:17;46.07;;;25.70;;
417;SDS011;49;48.530;9.200;2023-05-23T04:49:44;54.87;;;31.20;;
417;SDS011;49;48.530;9.200;2023-05-23T04:52:13;56.80;;;32.30;;
417;SDS011;49;48.530;9.200;2023-05-23T04:54:43;56.23;;;33.27;;
417;SDS011;49;48.530;9.200;2023-05-23T04:57:10;57.10;;;32.67;;
417;SDS011;49;48.530;9.200;2023-05-23T04:59:37;54.80;;;33.17;;
417;SDS011;49;48.530;9.200;2023-05-23T05:02:04;67.43;;;35.20;;
417;SDS011;49;48.530;9.200;2023-05-23T05:04:31;60.43;;;34.90;;
417;SDS011;49;48.530;9.200;2023-05-23T05:06:58;61.63;;;34.87;;
417;SDS011;49;48.530;9.200;2023-05-23T05:09:29;62.20;;;35.00;;
417;SDS011;49;48.530;9.200;2023-05-23T05:11:56;83.30;;;43.30;;
417;SDS011;49;48.530;9.200;2023-05-23T05:14:23;74.47;;;38.23;;
417;SDS011;49;48.530;9.200;2023-05-23T05:16:50;66.30;;;39.87;;
417;SDS011;49;48.530;9.200;2023-05-23T05:19:18;84.53;;;42.23;;
417;SDS011;49;48.530;9.200;2023-05-23T05:21:45;86.93;;;43.20;;
417;SDS011;49;48.530;9.200;2023-05-23T05:24:12;74.23;;;39.10;;
417;SDS011;49;48.530;9.200;2023-05-23T05:26:41;80.93;;;37.77;;
417;SDS011;49;48.530;9.200;2023-05-23T05:29:08;74.43;;;40.00;;
417;SDS011;49;48.530;9.200;2023-05-23T05:31:35;80.07;;;42.57;;
417;SDS011;49;48.530;9.200;2023-05-23T05:34:02;74.50;;;40.80;;
417;SDS011;49;48.530;9.200;2023-05-23T05:36:29;82.93;;;44.47;;
417;SDS011;49;48.530;9.200;2023-05-23T05:38:56;77.93;;;42.70;;
417;SDS011;49;48.530;9.200;2023-05-23T05:41:23;79.37;;;44.90;;
417;SDS011;49;48.530;9.200;2023-05-23T05:43:52;87.40;;;46.90;;
417;SDS011;49;48.530;9.200;2023-05-23T05:46:19;74.13;;;43.90;;
417;SDS011;49;48.530;9.200;2023-05-23T05:48:51;85.83;;;43.93;;
417;SDS011;49;48.530;9.200;2023-05-23T05:51:18;74.20;;;44.00;;
417;SDS011;49;48.530;9.200;2023-05-23T05:53:45;76.33;;;44.00;;
417;SDS011;49;48.530;9.200;2023-05-23T05:56:13;75.90;;;45.33;;
417;SDS011;49;48.530;9.200;2023-05-23T05:58:40;72.30;;;43.93;;
417;SDS011;49;48.530;9.200;2023-05-23T06:01:09;85.20;;;46.10;;
417;SDS011;49;48.530;9.200;2023-05-23T06:03:36;72.63;;;46.77;;
417;SDS011;49;48.530;9.200;2023-05-23T06:06:03;78.07;;;46.27;;
417;SDS011;49;48.530;9.200;2023-05-23T06:08:30;76.60;;;47.00;;
417;SDS011;49;48.530;9.200;2023-05-23T06:10:57;79.97;;;49.50;;
417;SDS011;49;48.530;9.200;2023-05-23T06:13:24;79.63;;;47.33;;
417;SDS011;49;48.530;9.200;2023-05-23T06:15:51;82.47;;;48.93;;
417;SDS011;49;48.530;9.200;2023-05-23T06:18:19;89.50;;;48.67;;
417;SDS011;49;48.530;9.200;2023-05-23T06:20:46;75.50;;;49.30;;
417;SDS011;49;48.530;9.200;2023-05-23T06:23:13;77.00;;;49.50;;
417;SDS011;49;48.530;9.200;2023-05-23T06:25:40;78.47;;;47.90;;
417;SDS011;49;48.530;9.200;2023-05-23T06:28:07;86.40;;;50.70;;
417;SDS011;49;48.530;9.200;2023-05-23T06:30:35;79.53;;;53.27;;
417;SDS011;49;48.530;9.200;2023-05-23T06:33:02;88.10;;;51.53;;
417;SDS011;49;48.530;9.200;2023-05-23T06:35:31;74.93;;;49.47;;
417;SDS011;49;48.530;9.200;2023-05-23T06:37:59;78.70;;;49.80;;
417;SDS011;49;48.530;9.200;2023-05-23T06:40:26;80.33;;;49.30;;
417;SDS011;49;48.530;9.200;2023-05-23T06:42:53;69.10;;;43.90;;
417;SDS011;49;48.530;9.200;2023-05-23T06:45:20;74.50;;;47.23;;
417;SDS011;49;48.530;9.200;2023-05-23T06:47:47;72.07;;;47.00;;
417;SDS011;49;48.530;9.200;2023-05-23T06:50:14;75.67;;;48.17;;
417;SDS011;49;48.530;9.200;2023-05-23T06:52:45;70.43;;;48.50;;
417;SDS011;49;48.530;9.200;2023-05-23T06:55:12;66.10;;;47.23;;
417;SDS011;49;48.530;9.200;2023-05-23T06:57:43;79.20;;;50.57;;
417;SDS011;49;48.530;9.200;2023-05-23T07:00:11;81.50;;;46.00;;
417;SDS011;49;48.530;9.200;2023-05-23T07:02:38;67.10;;;44.33;;
417;SDS011;49;48.530;9.200;2023-05-23T07:05:06;70.80;;;44.10;;
417;SDS011;49;48.530;9.200;2023-05-23T07:07:33;69.93;;;46.03;;
417;SDS011;49;48.530;9.200;2023-05-23T07:10:01;76.57;;;46.30;;
417;SDS011;49;48.530;9.200;2023-05-23T07:12:28;69.07;;;42.80;;
417;SDS011;49;48.530;9.200;2023-05-23T07:14:55;63.17;;;43.70;;
417;SDS011;49;48.530;9.200;2023-05-23T07:17:22;63.60;;;45.10;;
417;SDS011;49;48.530;9.200;2023-05-23T07:19:49;63.40;;;42.17;;
417;SDS011;49;48.530;9.200;2023-05-23T07:22:16;70.33;;;44.00;;
417;SDS011;49;48.530;9.200;2023-05-23T07:24:43;63.90;;;44.37;;
417;SDS011;49;48.530;9.200;2023-05-23T07:27:11;67.70;;;44.63;;
417;SDS011;49;48.530;9.200;2023-05-23T07:29:38;61.50;;;43.27;;
417;SDS011;49;48.530;9.200;2023-05-23T07:32:06;68.73;;;47.10;;
417;SDS011;49;48.530;9.200;2023-05-23T07:34:33;68.73;;;48.17;;
417;SDS011;49;48.530;9.200;2023-05-23T07:37:00;66.13;;;44.87;;
417;SDS011;49;48.530;9.200;2023-05-23T07:39:27;72.47;;;49.20;;
417;SDS011;49;48.530;9.200;2023-05-23T07:41:53;75.93;;;49.30;;
417;SDS011;49;48.530;9.200;2023-05-23T07:44:22;66.30;;;46.60;;
417;SDS011;49;48.530;9.200;2023-05-23T07:46:48;72.67;;;47.37;;
417;SDS011;49;48.530;9.200;2023-05-23T07:49:15;64.93;;;45.67;;
417;SDS011;49;48.530;9.200;2023-05-23T07:51:42;82.10;;;48.50;;
417;SDS011;49;48.530;9.200;2023-05-23T07:54:09;70.07;;;47.47;;
417;SDS011;49;48.530;9.200;2023-05-23T07:56:36;73.33;;;47.00;;
417;SDS011;49;48.530;9.200;2023-05-23T07:59:03;65.60;;;42.27;;
417;SDS011;49;48.530;9.200;2023-05-23T08:01:31;56.60;;;40.77;;
417;SDS011;49;48.530;9.200;2023-05-23T08:04:00;66.37;;;43.13;;
417;SDS011;49;48.530;9.200;2023-05-23T08:06:27;61.90;;;41.67;;
417;SDS011;49;48.530;9.200;2023-05-23T08:08:55;56.93;;;37.73;;
417;SDS011;49;48.530;9.200;2023-05-23T08:11:22;57.43;;;40.30;;
417;SDS011;49;48.530;9.200;2023-05-23T08:13:49;58.40;;;39.57;;
417;SDS011;49;48.530;9.200;2023-05-23T08:16:16;57.47;;;38.50;;
417;SDS011;49;48.530;9.200;2023-05-23T08:18:44;60.30;;;39.70;;
417;SDS011;49;48.530;9.200;2023-05-23T08:21:11;54.10;;;38.47;;
417;SDS011;49;48.530;9.200;2023-05-23T08:23:38;51.93;;;37.03;;
417;SDS011;49;48.530;9.200;2023-05-23T08:26:04;43.27;;;30.60;;
417;SDS011;49;48.530;9.200;2023-05-23T08:28:31;67.03;;;37.60;;
417;SDS011;49;48.530;9.200;2023-05-23T08:30:59;50.90;;;36.20;;
417;SDS011;49;48.530;9.200;2023-05-23T08:33:26;51.03;;;33.53;;
417;SDS011;49;48.530;9.200;2023-05-23T08:35:54;52.10;;;38.27;;
417;SDS011;49;48.530;9.200;2023-05-23T08:38:21;44.60;;;33.67;;
417;SDS011;49;48.530;9.200;2023-05-23T08:40:48;53.60;;;36.23;;
417;SDS011;49;48.530;9.200;2023-05-23T08:43:16;51.97;;;35.23;;
417;SDS011;49;48.530;9.200;2023-05-23T08:45:43;84.03;;;47.53;;
417;SDS011;49;48.530;9.200;2023-05-23T08:48:12;56.23;;;36.23;;
417;SDS011;49;48.530;9.200;2023-05-23T08:50:40;51.10;;;33.30;;
417;SDS011;49;48.530;9.200;2023-05-23T08:53:15;43.10;;;32.50;;
417;SDS011;49;48.530;9.200;2023-05-23T08:55:45;53.03;;;33.37;;
417;SDS011;49;48.530;9.200;2023-05-23T08:58:12;56.30;;;32.93;;
417;SDS011;49;48.530;9.200;2023-05-23T09:00:41;51.47;;;36.47;;
417;SDS011;49;48.530;9.200;2023-05-23T09:03:08;50.97;;;34.97;;
417;SDS011;49;48.530;9.200;2023-05-23T09:05:37;43.37;;;30.73;;
417;SDS011;49;48.530;9.200;2023-05-23T09:08:04;43.40;;;33.50;;
417;SDS011;49;48.530;9.200;2023-05-23T09:10:32;51.23;;;32.00;;
417;SDS011;49;48.530;9.200;2023-05-23T09:12:59;44.77;;;32.73;;
417;SDS011;49;48.530;9.200;2023-05-23T09:15:27;44.33;;;32.63;;
417;SDS011;49;48.530;9.200;2023-05-23T09:17:58;37.53;;;27.10;;
417;SDS011;49;48.530;9.200;2023-05-23T09:20:27;41.67;;;30.70;;
417;SDS011;49;48.530;9.200;2023-05-23T09:22:54;40.60;;;30.97;;
417;SDS011;49;48.530;9.200;2023-05-23T09:25:21;37.50;;;28.17;;
417;SDS011;49;48.530;9.200;2023-05-23T09:27:50;41.10;;;29.30;;
417;SDS011;49;48.530;9.200;2023-05-23T09:30:18;41.77;;;29.77;;
417;SDS011;49;48.530;9.200;2023-05-23T09:32:56;38.60;;;28.70;;
417;SDS011;49;48.530;9.200;2023-05-23T09:35:24;46.70;;;30.43;;
417;SDS011;49;48.530;9.200;2023-05-23T09:37:55;40.90;;;29.27;;
417;SDS011;49;48.530;9.200;2023-05-23T09:40:27;39.27;;;27.20;;
417;SDS011;49;48.530;9.200;2023-05-23T09:43:00;40.73;;;27.07;;
417;SDS011;49;48.530;9.200;2023-05-23T09:45:28;36.83;;;26.80;;
417;SDS011;49;48.530;9.200;2023-05-23T09:47:56;36.10;;;26.80;;
417;SDS011;49;48.530;9.200;2023-05-23T09:50:29;37.47;;;26.50;;
417;SDS011;49;48.530;9.200;2023-05-23T09:52:57;35.47;;;26.80;;
417;SDS011;49;48.530;9.200;2023-05-23T09:55:24;41.03;;;28.57;;
417;SDS011;49;48.530;9.200;2023-05-23T09:57:52;36.90;;;26.20;;
417;SDS011;49;48.530;9.200;2023-05-23T10:00:22;41.87;;;28.40;;
417;SDS011;49;48.530;9.200;2023-05-23T10:02:54;34.97;;;25.83;;
417;SDS011;49;48.530;9.200;2023-05-23T10:05:28;35.60;;;25.53;;
417;SDS011;49;48.530;9.200;2023-05-23T10:07:59;37.30;;;26.97;;
417;SDS011;49;48.530;9.200;2023-05-23T10:10:29;38.57;;;25.30;;
417;SDS011;49;48.530;9.200;2023-05-23T10:12:58;30.80;;;24.40;;
417;SDS011;49;48.530;9.200;2023-05-23T10:15:30;36.10;;;23.27;;
417;SDS011;49;48.530;9.200;2023-05-23T10:18:04;34.30;;;26.00;;
417;SDS011;49;48.530;9.200;2023-05-23T10:20:35;34.60;;;25.47;;
417;SDS011;49;48.530;9.200;2023-05-23T10:23:05;38.83;;;26.60;;
417;SDS011;49;48.530;9.200;2023-05-23T10:25:32;36.03;;;26.37;;
417;SDS011;49;48.530;9.200;2023-05-23T10:28:01;31.10;;;23.20;;
417;SDS011;49;48.530;9.200;2023-05-23T10:30:29;36.97;;;24.93;;
417;SDS011;49;48.530;9.200;2023-05-23T10:32:57;37.90;;;24.47;;
417;SDS011;49;48.530;9.200;2023-05-23T10:35:29;33.50;;;23.27;;
417;SDS011;49;48.530;9.200;2023-05-23T10:38:14;42.43;;;24.77;;
417;SDS011;49;48.530;9.200;2023-05-23T10:40:54;32.50;;;23.70;;
417;SDS011;49;48.530;9.200;2023-05-23T10:43:28;33.50;;;23.03;;
417;SDS011;49;48.530;9.200;2023-05-23T10:46:01;30.33;;;22.63;;
417;SDS011;49;48.530;9.200;2023-05-23T10:48:31;28.73;;;21.10;;
417;SDS011;49;48.530;9.200;2023-05-23T10:51:03;28.43;;;22.13;;
417;SDS011;49;48.530;9.200;2023-05-23T10:53:31;30.13;;;21.23;;
417;SDS011;49;48.530;9.200;2023-05-23T10:56:03;26.20;;;20.70;;
417;SDS011;49;48.530;9.200;2023-05-23T10:58:31;26.93;;;19.67;;
417;SDS011;49;48.530;9.200;2023-05-23T11:01:01;30.50;;;20.10;;
417;SDS011;49;48.530;9.200;2023-05-23T11:03:32;26.63;;;19.53;;
417;SDS011;49;48.530;9.200;2023-05-23T11:06:00;28.00;;;19.27;;
417;SDS011;49;48.530;9.200;2023-05-23T11:08:34;31.20;;;18.37;;
417;SDS011;49;48.530;9.200;2023-05-23T11:11:02;33.77;;;19.20;;
417;SDS011;49;48.530;9.200;2023-05-23T11:16:24;19.67;;;14.77;;
417;SDS011;49;48.530;9.200;2023-05-23T11:18:56;24.80;;;14.67;;
417;SDS011;49;48.530;9.200;2023-05-23T11:21:51;20.23;;;14.87;;
417;SDS011;49;48.530;9.200;2023-05-23T11:24:22;21.33;;;14.97;;
417;SDS011;49;48.530;9.200;2023-05-23T11:27:10;23.13;;;16.47;;
417;SDS011;49;48.530;9.200;2023-05-23T11:29:37;19.60;;;14.07;;
417;SDS011;49;48.530;9.200;2023-05-23T11:32:10;20.73;;;14.97;;
417;SDS011;49;48.530;9.200;2023-05-23T11:34:38;24.43;;;14.43;;
417;SDS011;49;48.530;9.200;2023-05-23T11:37:06;16.47;;;13.97;;
417;SDS011;49;48.530;9.200;2023-05-23T11:39:33;20.97;;;13.40;;
417;SDS011;49;48.530;9.200;2023-05-23T11:42:00;20.23;;;13.43;;
417;SDS011;49;48.530;9.200;2023-05-23T11:44:28;16.67;;;13.27;;
417;SDS011;49;48.530;9.200;2023-05-23T11:46:59;16.30;;;12.43;;
417;SDS011;49;48.530;9.200;2023-05-23T11:49:28;20.43;;;13.80;;
417;SDS011;49;48.530;9.200;2023-05-23T11:51:56;16.80;;;12.83;;
417;SDS011;49;48.530;9.200;2023-05-23T11:54:24;17.47;;;13.00;;
417;SDS011;49;48.530;9.200;2023-05-23T11:56:51;23.97;;;12.50;;
417;SDS011;49;48.530;9.200;2023-05-23T11:59:20;21.53;;;11.83;;
417;SDS011;49;48.530;9.200;2023-05-23T12:01:50;16.17;;;12.10;;
417;SDS011;49;48.530;9.200;2023-05-23T12:04:18;27.57;;;11.13;;
417;SDS011;49;48.530;9.200;2023-05-23T12:06:47;16.20;;;11.30;;
417;SDS011;49;48.530;9.200;2023-05-23T12:09:15;16.33;;;11.20;;
417;SDS011;49;48.530;9.200;2023-05-23T12:11:42;12.00;;;9.20;;
417;SDS011;49;48.530;9.200;2023-05-23T12:14:13;10.80;;;9.00;;
417;SDS011;49;48.530;9.200;2023-05-23T12:16:41;13.53;;;10.30;;
417;SDS011;49;48.530;9.200;2023-05-23T12:19:09;12.90;;;9.70;;
417;SDS011;49;48.530;9.200;2023-05-23T12:21:41;12.77;;;10.40;;
417;SDS011;49;48.530;9.200;2023-05-23T12:24:15;14.93;;;9.57;;
417;SDS011;49;48.530;9.200;2023-05-23T12:26:49;17.00;;;11.80;;
417;SDS011;49;48.530;9.200;2023-05-23T12:29:17;14.73;;;10.47;;
417;SDS011;49;48.530;9.200;2023-05-23T12:31:49;16.03;;;10.93;;
417;SDS011;49;48.530;9.200;2023-05-23T12:34:18;16.13;;;10.83;;
417;SDS011;49;48.530;9.200;2023-05-23T12:36:46;18.20;;;11.13;;
417;SDS011;49;48.530;9.200;2023-05-23T12:39:15;19.90;;;11.73;;
417;SDS011;49;48.530;9.200;2023-05-23T12:41:42;20.37;;;10.60;;
417;SDS011;49;48.530;9.200;2023-05-23T12:44:10;14.10;;;9.50;;
417;SDS011;49;48.530;9.200;2023-05-23T12:46:41;14.13;;;10.07;;
417;SDS011;49;48.530;9.200;2023-05-23T12:49:07;17.13;;;10.83;;
417;SDS011;49;48.530;9.200;2023-05-23T12:51:36;19.50;;;10.90;;
417;SDS011;49;48.530;9.200;2023-05-23T12:54:03;14.30;;;10.80;;
417;SDS011;49;48.530;9.200;2023-05-23T12:56:31;15.83;;;10.87;;
417;SDS011;49;48.530;9.200;2023-05-23T12:58:58;15.67;;;10.63;;
417;SDS011;49;48.530;9.200;2023-05-23T13:01:25;13.20;;;10.73;;
417;SDS011;49;48.530;9.200;2023-05-23T13:03:52;14.10;;;11.70;;
417;SDS011;49;48.530;9.200;2023-05-23T13:06:19;26.53;;;11.77;;
417;SDS011;49;48.530;9.200;2023-05-23T13:08:47;15.37;;;10.47;;
417;SDS011;49;48.530;9.200;2023-05-23T13:11:15;21.10;;;10.23;;
417;SDS011;49;48.530;9.200;2023-05-23T13:13:45;16.90;;;10.03;;
417;SDS011;49;48.530;9.200;2023-05-23T13:16:12;12.90;;;10.20;;
417;SDS011;49;48.530;9.200;2023-05-23T13:18:39;10.37;;;8.13;;
417;SDS011;49;48.530;9.200;2023-05-23T13:21:06;12.10;;;8.40;;
417;SDS011;49;48.530;9.200;2023-05-23T13:23:33;10.43;;;8.30;;
417;SDS011;49;48.530;9.200;2023-05-23T13:26:01;10.77;;;7.97;;
417;SDS011;49;48.530;9.200;2023-05-23T13:28:28;10.55;;;8.25;;
417;SDS011;49;48.530;9.200;2023-05-23T13:30:56;11.10;;;7.13;;
417;SDS011;49;48.530;9.200;2023-05-23T13:33:23;9.00;;;7.10;;
417;SDS011;49;48.530;9.200;2023-05-23T13:35:50;7.73;;;6.47;;
417;SDS011;49;48.530;9.200;2023-05-23T13:38:18;12.90;;;7.47;;
417;SDS011;49;48.530;9.200;2023-05-23T13:40:45;9.30;;;7.83;;
417;SDS011;49;48.530;9.200;2023-05-23T13:43:12;11.23;;;7.60;;
417;SDS011;49;48.530;9.200;2023-05-23T13:45:39;8.33;;;7.07;;
417;SDS011;49;48.530;9.200;2023-05-23T13:48:07;10.40;;;7.90;;
417;SDS011;49;48.530;9.200;2023-05-23T13:50:34;12.33;;;6.83;;
417;SDS011;49;48.530;9.200;2023-05-23T13:53:01;10.53;;;7.30;;
417;SDS011;49;48.530;9.200;2023-05-23T13:55:28;7.20;;;6.03;;
417;SDS011;49;48.530;9.200;2023-05-23T13:57:55;10.43;;;6.93;;
417;SDS011;49;48.530;9.200;2023-05-23T14:00:22;6.60;;;6.23;;
417;SDS011;49;48.530;9.200;2023-05-23T14:02:50;8.37;;;6.00;;
417;SDS011;49;48.530;9.200;2023-05-23T14:05:19;7.03;;;5.90;;
417;SDS011;49;48.530;9.200;2023-05-23T14:07:46;7.47;;;6.23;;
417;SDS011;49;48.530;9.200;2023-05-23T14:10:13;8.03;;;6.20;;
417;SDS011;49;48.530;9.200;2023-05-23T14:12:50;6.30;;;5.40;;
417;SDS011;49;48.530;9.200;2023-05-23T14:15:17;9.33;;;5.87;;
417;SDS011;49;48.530;9.200;2023-05-23T14:17:44;9.40;;;5.73;;
417;SDS011;49;48.530;9.200;2023-05-23T14:20:12;6.80;;;5.27;;
417;SDS011;49;48.530;9.200;2023-05-23T14:22:40;6.97;;;5.17;;
417;SDS011;49;48.530;9.200;2023-05-23T14:25:07;10.53;;;5.43;;
417;SDS011;49;48.530;9.200;2023-05-23T14:27:35;10.97;;;6.33;;
417;SDS011;49;48.530;9.200;2023-05-23T14:30:17;9.00;;;5.70;;
417;SDS011;49;48.530;9.200;2023-05-23T14:32:44;6.17;;;5.27;;
417;SDS011;49;48.530;9.200;2023-05-23T14:35:11;9.83;;;5.77;;
417;SDS011;49;48.530;9.200;2023-05-23T14:37:38;9.67;;;6.13;;
417;SDS011;49;48.530;9.200;2023-05-23T14:40:07;8.33;;;6.27;;
417;SDS011;49;48.530;9.200;2023-05-23T14:42:38;10.03;;;6.03;;
417;SDS011;49;48.530;9.200;2023-05-23T14:45:05;6.80;;;5.80;;
417;SDS011;49;48.530;9.200;2023-05-23T14:47:32;6.70;;;5.70;;
417;SDS011;49;48.530;9.200;2023-05-23T14:49:59;6.97;;;5.07;;
417;SDS011;49;48.530;9.200;2023-05-23T14:52:26;20.13;;;7.47;;
417;SDS011;49;48.530;9.200;2023-05-23T14:54:54;6.30;;;5.00;;
417;SDS011;49;48.530;9.200;2023-05-23T14:57:21;16.40;;;5.80;;
417;SDS011;49;48.530;9.200;2023-05-23T14:59:49;9.73;;;5.40;;
417;SDS011;49;48.530;9.200;2023-05-23T15:02:16;7.07;;;5.10;;
417;SDS011;49;48.530;9.200;2023-05-23T15:04:43;9.07;;;5.20;;
417;SDS011;49;48.530;9.200;2023-05-23T15:07:10;7.53;;;5.30;;
417;SDS011;49;48.530;9.200;2023-05-23T15:09:38;8.23;;;5.00;;
417;SDS011;49;48.530;9.200;2023-05-23T15:12:08;5.73;;;4.50;;
417;SDS011;49;48.530;9.200;2023-05-23T15:14:35;6.10;;;5.17;;
417;SDS011;49;48.530;9.200;2023-05-23T15:17:02;6.53;;;4.70;;
417;SDS011;49;48.530;9.200;2023-05-23T15:19:32;6.73;;;4.97;;
417;SDS011;49;48.530;9.200;2023-05-23T15:22:00;5.17;;;4.97;;
417;SDS011;49;48.530;9.200;2023-05-23T15:24:27;5.40;;;4.47;;
417;SDS011;49;48.530;9.200;2023-05-23T15:26:54;7.93;;;4.83;;
417;SDS011;49;48.530;9.200;2023-05-23T15:29:22;5.83;;;4.63;;
417;SDS011;49;48.530;9.200;2023-05-23T15:31:50;6.00;;;4.77;;
417;SDS011;49;48.530;9.200;2023-05-23T15:34:17;5.43;;;4.23;;
417;SDS011;49;48.530;9.200;2023-05-23T15:36:44;8.60;;;4.83;;
417;SDS011;49;48.530;9.200;2023-05-23T15:39:11;5.00;;;4.60;;
417;SDS011;49;48.530;9.200;2023-05-23T15:41:38;7.43;;;4.57;;
417;SDS011;49;48.530;9.200;2023-05-23T15:44:05;5.60;;;4.53;;